Espartinas, Spain
Current Conditions -  °F | °C
As of 5:00 AM on Thursday 23 Oct 2014 (Local Time) from LEZL Reporting Station
Clear Clear  
Wind Chill: 64°   Ceiling: Unl
Heat Index: 64°   Visibility: 6mi
Dew Point: 45°   Wind: 10mph
Humidity: 49%   Direction: 60°ENE
Pressure: 30.12"   Gusts: NA
Location:  37.38°N, 6.13°W
Report Text: LEZL 230300Z 06009KT CAVOK 18/07 Q1020 NOSIG
Loading
Personal Weather Stations






























Interactive Weather Map New forecast layout! Learn more

10-Day Weather Forecast

Advertisements
Track Severe Weather on mobile